createdAt,value
2023-03-20T00:01:13.619Z,98768.41
2023-03-20T00:03:42.477Z,98786.63
2023-03-20T00:06:17.284Z,98793.66
2023-03-20T00:08:46.773Z,98794.06
2023-03-20T00:11:28.797Z,98790.13
2023-03-20T00:13:59.160Z,98781.34
2023-03-20T00:16:32.516Z,98784.88
2023-03-20T00:19:01.020Z,98784.88
2023-03-20T00:21:31.484Z,98783.13
2023-03-20T00:24:00.707Z,98774.34
2023-03-20T00:26:34.660Z,98781.78
2023-03-20T00:29:04.938Z,98779.53
2023-03-20T00:31:35.679Z,98788.63
2023-03-20T00:34:06.786Z,98793.44
2023-03-20T00:36:36.518Z,98796.97
2023-03-20T00:39:05.658Z,98798.16
2023-03-20T00:41:39.568Z,98805.00
2023-03-20T00:44:21.190Z,98801.22
2023-03-20T00:46:51.597Z,98782.25
2023-03-20T00:49:27.940Z,98790.13
2023-03-20T00:51:58.020Z,98792.41
2023-03-20T00:54:26.968Z,98799.41
2023-03-20T00:56:58.377Z,98805.84
2023-03-20T00:59:30.089Z,98799.00
2023-03-20T01:02:01.475Z,98803.56
2023-03-20T01:04:36.308Z,98810.63
2023-03-20T01:07:06.865Z,98798.38
2023-03-20T01:09:35.185Z,98810.41
2023-03-20T01:12:05.399Z,98802.53
2023-03-20T01:14:34.100Z,98802.72
2023-03-20T01:17:03.081Z,98789.41
2023-03-20T01:19:31.448Z,98796.66
2023-03-20T01:21:59.676Z,98793.47
2023-03-20T01:24:31.488Z,98780.00
2023-03-20T01:27:03.513Z,98788.44
2023-03-20T01:29:32.718Z,98779.91
2023-03-20T01:32:01.146Z,98791.09
2023-03-20T01:34:30.525Z,98794.34
2023-03-20T01:36:59.880Z,98797.06
2023-03-20T01:39:35.996Z,98791.91
2023-03-20T01:42:07.146Z,98797.38
2023-03-20T01:44:37.488Z,98795.09
2023-03-20T01:47:16.412Z,98808.13
2023-03-20T01:50:23.259Z,98804.00
2023-03-20T01:53:02.378Z,98797.13
2023-03-20T01:55:33.149Z,98809.34
2023-03-20T01:58:07.018Z,98818.06
2023-03-20T02:00:36.655Z,98818.13
2023-03-20T02:03:08.431Z,98818.53
2023-03-20T02:05:57.990Z,98834.53
2023-03-20T02:08:30.738Z,98846.13
2023-03-20T02:11:06.331Z,98834.94
2023-03-20T02:13:36.130Z,98844.66
2023-03-20T02:16:08.107Z,98844.66
2023-03-20T02:18:57.373Z,98849.06
2023-03-20T02:22:01.476Z,98854.41
2023-03-20T02:24:59.241Z,98849.34
2023-03-20T02:27:39.418Z,98836.88
2023-03-20T02:30:49.165Z,98843.63
2023-03-20T02:33:44.538Z,98846.56
2023-03-20T02:36:45.047Z,98845.94
2023-03-20T02:39:25.767Z,98853.19
2023-03-20T02:42:01.583Z,98849.66
2023-03-20T02:44:39.657Z,98849.56
2023-03-20T02:47:14.369Z,98844.84
2023-03-20T02:49:55.468Z,98847.19
2023-03-20T02:52:35.091Z,98842.38
2023-03-20T02:55:15.909Z,98848.00
2023-03-20T02:57:52.068Z,98852.16
2023-03-20T03:00:28.840Z,98854.44
2023-03-20T03:03:05.709Z,98854.03
2023-03-20T03:05:39.454Z,98848.03
2023-03-20T03:08:13.664Z,98854.84
2023-03-20T03:10:48.885Z,98853.19
2023-03-20T03:13:23.057Z,98857.56
2023-03-20T03:15:56.490Z,98860.44
2023-03-20T03:18:28.060Z,98851.72
2023-03-20T03:20:59.315Z,98852.78
2023-03-20T03:23:31.490Z,98859.63
2023-03-20T03:26:04.185Z,98847.59
2023-03-20T03:28:37.522Z,98855.47
2023-03-20T03:31:08.681Z,98857.31
2023-03-20T03:33:40.649Z,98857.13
2023-03-20T03:36:16.132Z,98858.78
2023-03-20T03:38:55.496Z,98864.59
2023-03-20T03:41:29.968Z,98859.19
2023-03-20T03:44:09.041Z,98859.84
2023-03-20T03:46:45.440Z,98860.44
2023-03-20T03:49:18.311Z,98868.13
2023-03-20T03:51:50.456Z,98865.41
2023-03-20T03:54:23.574Z,98873.31
2023-03-20T03:57:21.343Z,98867.91
2023-03-20T03:59:53.426Z,98868.94
2023-03-20T04:02:24.132Z,98873.72
2023-03-20T04:04:54.873Z,98876.84
2023-03-20T04:07:26.843Z,98873.31
2023-03-20T04:09:57.393Z,98870.38
2023-03-20T04:12:34.833Z,98868.75
2023-03-20T04:15:04.509Z,98867.31
2023-03-20T04:17:34.630Z,98864.16
2023-03-20T04:20:04.031Z,98864.59
2023-03-20T04:22:34.772Z,98865.19
2023-03-20T04:25:11.576Z,98860.25
2023-03-20T04:27:41.223Z,98855.25
2023-03-20T04:30:16.430Z,98865.84
2023-03-20T04:33:03.425Z,98868.53
2023-03-20T04:35:46.225Z,98864.59
2023-03-20T04:38:17.138Z,98866.03
2023-03-20T04:40:47.132Z,98874.53
2023-03-20T04:43:17.024Z,98881.19
2023-03-20T04:45:45.492Z,98877.84
2023-03-20T04:48:14.869Z,98876.63
2023-03-20T04:50:46.544Z,98882.63
2023-03-20T04:53:15.588Z,98879.31
2023-03-20T04:55:45.626Z,98879.94
2023-03-20T04:58:14.758Z,98881.56
2023-03-20T05:00:44.978Z,98877.03
2023-03-20T05:03:13.337Z,98878.91
2023-03-20T05:05:45.413Z,98880.97
2023-03-20T05:08:14.089Z,98886.16
2023-03-20T05:10:45.511Z,98894.03
2023-03-20T05:13:39.538Z,98888.44
2023-03-20T05:16:37.958Z,98884.06
2023-03-20T05:19:32.164Z,98882.84
2023-03-20T05:22:13.018Z,98883.03
2023-03-20T05:24:53.598Z,98879.31
2023-03-20T05:27:40.613Z,98872.25
2023-03-20T05:30:29.306Z,98875.38
2023-03-20T05:33:19.207Z,98882.84
2023-03-20T05:35:57.280Z,98882.41
2023-03-20T05:38:39.464Z,98892.56
2023-03-20T05:41:30.595Z,98891.34
2023-03-20T05:44:19.769Z,98899.81
2023-03-20T05:47:14.929Z,98905.88
2023-03-20T05:50:15.118Z,98906.06
2023-03-20T05:53:09.369Z,98907.28
2023-03-20T05:55:49.059Z,98904.59
2023-03-20T05:58:48.221Z,98904.41
2023-03-20T06:01:42.410Z,98899.00
2023-03-20T06:04:32.072Z,98904.19
2023-03-20T06:07:31.021Z,98910.22
2023-03-20T06:10:07.473Z,98902.47
2023-03-20T06:12:36.093Z,98906.47
2023-03-20T06:15:06.478Z,98908.94
2023-03-20T06:17:39.342Z,98900.19
2023-03-20T06:20:09.678Z,98898.38
2023-03-20T06:22:39.644Z,98910.81
2023-03-20T06:25:11.385Z,98905.22
2023-03-20T06:27:43.491Z,98910.41
2023-03-20T06:30:13.072Z,98904.41
2023-03-20T06:32:42.243Z,98903.50
2023-03-20T06:35:13.689Z,98897.28
2023-03-20T06:37:47.882Z,98907.66
2023-03-20T06:40:23.002Z,98893.34
2023-03-20T06:42:51.531Z,98882.75
2023-03-20T06:45:20.773Z,98893.06
2023-03-20T06:47:54.685Z,98897.22
2023-03-20T06:50:23.744Z,98895.84
2023-03-20T06:52:53.467Z,98892.22
2023-03-20T06:55:42.261Z,98899.91
2023-03-20T06:58:11.913Z,98911.75
2023-03-20T07:00:40.789Z,98911.03
2023-03-20T07:03:10.448Z,98912.56
2023-03-20T07:05:40.216Z,98920.28
2023-03-20T07:08:12.252Z,98930.75
2023-03-20T07:10:40.563Z,98925.53
2023-03-20T07:13:09.239Z,98927.78
2023-03-20T07:15:42.286Z,98931.22
2023-03-20T07:18:21.237Z,98925.81
2023-03-20T07:20:52.674Z,98918.63
2023-03-20T07:23:22.991Z,98921.19
2023-03-20T07:25:51.878Z,98916.97
2023-03-20T07:28:21.017Z,98919.31
2023-03-20T07:30:55.644Z,98922.06
2023-03-20T07:33:25.870Z,98922.50
2023-03-20T07:35:54.921Z,98923.81
2023-03-20T07:38:24.922Z,98918.31
2023-03-20T07:41:06.652Z,98926.31
2023-03-20T07:43:40.059Z,98923.78
2023-03-20T07:46:34.622Z,98925.47
2023-03-20T07:49:03.410Z,98916.97
2023-03-20T07:51:34.283Z,98915.78
2023-03-20T07:54:06.411Z,98911.31
2023-03-20T07:56:34.758Z,98909.78
2023-03-20T07:59:03.078Z,98909.41
2023-03-20T08:01:31.408Z,98911.59
2023-03-20T08:03:59.995Z,98914.34
2023-03-20T08:06:28.503Z,98923.09
2023-03-20T08:08:56.972Z,98919.56
2023-03-20T08:11:26.864Z,98912.97
2023-03-20T08:13:55.225Z,98920.19
2023-03-20T08:16:23.689Z,98914.56
2023-03-20T08:18:53.214Z,98915.53
2023-03-20T08:21:21.567Z,98911.13
2023-03-20T08:23:49.876Z,98906.84
2023-03-20T08:26:18.178Z,98910.41
2023-03-20T08:28:48.757Z,98901.00
2023-03-20T08:31:18.679Z,98905.31
2023-03-20T08:33:47.962Z,98903.91
2023-03-20T08:36:19.536Z,98910.59
2023-03-20T08:38:48.905Z,98908.59
2023-03-20T08:41:17.606Z,98906.41
2023-03-20T08:43:47.608Z,98909.88
2023-03-20T08:46:15.971Z,98903.00
2023-03-20T08:48:44.275Z,98906.50
2023-03-20T08:51:12.629Z,98887.84
2023-03-20T08:53:40.935Z,98915.09
2023-03-20T08:56:10.789Z,98895.19
2023-03-20T08:58:41.141Z,98908.69
2023-03-20T09:01:11.592Z,98910.72
2023-03-20T09:03:39.963Z,98912.06
2023-03-20T09:06:10.184Z,98923.31
2023-03-20T09:08:38.881Z,98918.56
2023-03-20T09:11:08.111Z,98919.69
2023-03-20T09:13:38.951Z,98907.94
2023-03-20T09:16:13.786Z,98908.53
2023-03-20T09:18:43.402Z,98910.03
2023-03-20T09:21:11.779Z,98914.75
2023-03-20T09:23:42.429Z,98919.03
2023-03-20T09:26:10.789Z,98918.81
2023-03-20T09:28:39.150Z,98921.28
2023-03-20T09:31:07.746Z,98923.28
2023-03-20T09:33:37.818Z,98917.66
2023-03-20T09:36:08.331Z,98923.88
2023-03-20T09:38:36.769Z,98921.38
2023-03-20T09:41:06.612Z,98912.94
2023-03-20T09:43:46.515Z,98924.69
2023-03-20T09:46:29.019Z,98931.31
2023-03-20T09:49:07.582Z,98934.50
2023-03-20T09:51:41.773Z,98944.38
2023-03-20T09:54:19.203Z,98933.47
2023-03-20T09:56:47.652Z,98943.91
2023-03-20T09:59:20.686Z,98952.22
2023-03-20T10:01:53.054Z,98952.78
2023-03-20T10:04:26.293Z,98948.41
2023-03-20T10:06:55.415Z,98950.28
2023-03-20T10:09:28.104Z,98953.63
2023-03-20T10:12:11.363Z,98957.84
2023-03-20T10:14:52.824Z,98954.81
2023-03-20T10:17:46.592Z,98958.06
2023-03-20T10:20:26.920Z,98955.72
2023-03-20T10:22:58.890Z,98956.13
2023-03-20T10:25:33.925Z,98955.00
2023-03-20T10:28:04.713Z,98942.97
2023-03-20T10:30:49.316Z,98948.06
2023-03-20T10:33:27.052Z,98944.75
2023-03-20T10:36:08.979Z,98940.53
2023-03-20T10:38:43.609Z,98950.56
2023-03-20T10:41:16.118Z,98955.09
2023-03-20T10:43:46.661Z,98944.09
2023-03-20T10:46:18.147Z,98948.44
2023-03-20T10:48:50.220Z,98934.16
2023-03-20T10:51:23.519Z,98943.13
2023-03-20T10:53:54.888Z,98945.31
2023-03-20T10:56:30.108Z,98945.97
2023-03-20T10:59:04.664Z,98940.59
2023-03-20T11:01:35.624Z,98935.31
2023-03-20T11:04:04.286Z,98932.94
2023-03-20T11:06:40.254Z,98939.00
2023-03-20T11:09:18.668Z,98940.28
2023-03-20T11:11:47.792Z,98922.13
2023-03-20T11:14:19.626Z,98933.91
2023-03-20T11:16:51.944Z,98939.00
2023-03-20T11:19:24.371Z,98932.16
2023-03-20T11:21:56.124Z,98946.69
2023-03-20T11:24:34.061Z,98917.53
2023-03-20T11:27:07.628Z,98928.38
2023-03-20T11:29:39.157Z,98935.44
2023-03-20T11:32:16.582Z,98927.88
2023-03-20T11:34:47.802Z,98932.13
2023-03-20T11:37:27.077Z,98927.19
2023-03-20T11:40:00.219Z,98925.72
2023-03-20T11:42:30.599Z,98916.16
2023-03-20T11:45:02.047Z,98927.00
2023-03-20T11:47:34.736Z,98905.69
2023-03-20T11:50:05.935Z,98931.50
2023-03-20T11:52:41.171Z,98924.38
2023-03-20T11:55:26.160Z,98927.66
2023-03-20T11:57:58.475Z,98920.19
2023-03-20T12:00:36.123Z,98923.91
2023-03-20T12:03:05.005Z,98918.03
2023-03-20T12:05:35.487Z,98914.38
2023-03-20T12:08:13.112Z,98908.88
2023-03-20T12:10:44.849Z,98905.94
2023-03-20T12:13:18.185Z,98899.97
2023-03-20T12:15:50.429Z,98899.41
2023-03-20T12:18:26.003Z,98893.13
2023-03-20T12:21:05.611Z,98907.28
2023-03-20T12:23:38.239Z,98887.56
2023-03-20T12:26:09.782Z,98906.41
2023-03-20T12:28:44.188Z,98895.78
2023-03-20T12:31:23.392Z,98895.06
2023-03-20T12:34:01.111Z,98899.09
2023-03-20T12:36:34.701Z,98884.09
2023-03-20T12:39:07.568Z,98889.31
2023-03-20T12:41:46.912Z,98891.31
2023-03-20T12:44:39.772Z,98863.75
2023-03-20T12:47:32.944Z,98881.75
2023-03-20T12:50:09.912Z,98874.91
2023-03-20T12:52:49.700Z,98873.50
2023-03-20T12:55:32.046Z,98871.81
2023-03-20T12:58:11.957Z,98858.81
2023-03-20T13:00:49.634Z,98854.53
2023-03-20T13:03:33.935Z,98860.56
2023-03-20T13:06:08.415Z,98857.09
2023-03-20T13:08:50.780Z,98849.59
2023-03-20T13:11:29.815Z,98845.66
2023-03-20T13:14:05.578Z,98844.88
2023-03-20T13:16:46.975Z,98845.53
2023-03-20T13:19:24.602Z,98841.75
2023-03-20T13:21:57.295Z,98837.53
2023-03-20T13:24:36.391Z,98844.81
2023-03-20T13:27:18.818Z,98833.50
2023-03-20T13:29:54.678Z,98839.59
2023-03-20T13:32:32.432Z,98820.59
2023-03-20T13:35:28.647Z,98822.69
2023-03-20T13:38:00.537Z,98823.72
2023-03-20T13:40:31.288Z,98826.91
2023-03-20T13:43:14.411Z,98822.28
2023-03-20T13:45:44.045Z,98815.97
2023-03-20T13:48:26.081Z,98817.75
2023-03-20T13:51:02.174Z,98812.81
2023-03-20T13:53:39.137Z,98777.69
2023-03-20T13:56:21.091Z,98807.56
2023-03-20T13:59:17.402Z,98802.31
2023-03-20T14:01:56.117Z,98801.41
2023-03-20T14:04:25.640Z,98808.56
2023-03-20T14:06:55.350Z,98804.25
2023-03-20T14:09:32.950Z,98803.69
2023-03-20T14:12:08.360Z,98800.75
2023-03-20T14:14:44.536Z,98799.94
2023-03-20T14:17:21.187Z,98792.59
2023-03-20T14:19:50.845Z,98792.91
2023-03-20T14:22:23.364Z,98799.59
2023-03-20T14:24:58.735Z,98801.91
2023-03-20T14:27:43.432Z,98785.84
2023-03-20T14:30:44.039Z,98800.41
2023-03-20T14:33:31.074Z,98803.81
2023-03-20T14:36:23.142Z,98807.75
2023-03-20T14:39:03.953Z,98805.66
2023-03-20T14:41:41.816Z,98789.31
2023-03-20T14:44:25.207Z,98800.19
2023-03-20T14:47:02.221Z,98791.66
2023-03-20T14:49:51.780Z,98795.13
2023-03-20T14:52:33.230Z,98788.25
2023-03-20T14:55:28.857Z,98798.88
2023-03-20T14:57:58.233Z,98789.63
2023-03-20T15:00:29.992Z,98792.78
2023-03-20T15:03:07.903Z,98786.09
2023-03-20T15:05:40.638Z,98795.34
2023-03-20T15:08:12.147Z,98789.19
2023-03-20T15:10:48.304Z,98793.19
2023-03-20T15:13:17.615Z,98791.31
2023-03-20T15:15:54.685Z,98794.41
2023-03-20T15:18:26.472Z,98790.56
2023-03-20T15:20:57.585Z,98788.25
2023-03-20T15:23:26.981Z,98791.09
2023-03-20T15:25:55.461Z,98790.72
2023-03-20T15:28:25.401Z,98796.81
2023-03-20T15:30:58.898Z,98784.66
2023-03-20T15:33:33.421Z,98786.78
2023-03-20T15:36:09.744Z,98792.63
2023-03-20T15:38:40.237Z,98786.88
2023-03-20T15:41:09.571Z,98788.44
2023-03-20T15:43:38.160Z,98794.84
2023-03-20T15:46:17.856Z,98769.16
2023-03-20T15:48:51.395Z,98790.34
2023-03-20T15:51:20.748Z,98796.97
2023-03-20T15:53:50.202Z,98799.47
2023-03-20T15:56:20.808Z,98806.22
2023-03-20T15:58:53.450Z,98797.97
2023-03-20T16:01:24.172Z,98800.66
2023-03-20T16:03:59.739Z,98800.28
2023-03-20T16:06:30.349Z,98802.94
2023-03-20T16:09:00.774Z,98802.66
2023-03-20T16:11:38.971Z,98795.69
2023-03-20T16:14:08.963Z,98795.00
2023-03-20T16:16:38.179Z,98793.94
2023-03-20T16:19:08.889Z,98807.34
2023-03-20T16:21:41.400Z,98798.50
2023-03-20T16:24:16.836Z,98803.09
2023-03-20T16:26:51.223Z,98799.09
2023-03-20T16:29:22.179Z,98799.47
2023-03-20T16:31:57.781Z,98794.59
2023-03-20T16:34:33.516Z,98789.78
2023-03-20T16:37:07.340Z,98778.47
2023-03-20T16:39:35.713Z,98785.03
2023-03-20T16:42:24.601Z,98749.06
2023-03-20T16:44:56.494Z,98777.28
2023-03-20T16:47:34.309Z,98775.84
2023-03-20T16:50:23.021Z,98776.63
2023-03-20T16:52:53.325Z,98771.88
2023-03-20T16:55:27.445Z,98785.22
2023-03-20T16:57:58.967Z,98783.16
2023-03-20T17:00:30.826Z,98777.69
2023-03-20T17:03:14.493Z,98778.38
2023-03-20T17:05:48.938Z,98772.41
2023-03-20T17:08:23.760Z,98782.63
2023-03-20T17:10:57.108Z,98783.84
2023-03-20T17:13:25.457Z,98786.19
2023-03-20T17:15:53.808Z,98787.38
2023-03-20T17:18:22.075Z,98781.72
2023-03-20T17:20:51.925Z,98788.34
2023-03-20T17:23:23.040Z,98786.50
2023-03-20T17:25:52.078Z,98788.81
2023-03-20T17:28:23.055Z,98795.44
2023-03-20T17:30:52.472Z,98798.59
2023-03-20T17:33:21.914Z,98796.41
2023-03-20T17:35:52.742Z,98795.59
2023-03-20T17:38:24.438Z,98809.44
2023-03-20T17:40:53.657Z,98799.78
2023-03-20T17:43:24.463Z,98809.47
2023-03-20T17:45:52.981Z,98807.25
2023-03-20T17:48:22.462Z,98805.41
2023-03-20T17:50:52.389Z,98806.25
2023-03-20T17:53:24.017Z,98808.97
2023-03-20T17:55:52.761Z,98810.34
2023-03-20T17:58:23.054Z,98811.63
2023-03-20T18:00:52.193Z,98809.34
2023-03-20T18:03:21.549Z,98809.25
2023-03-20T18:05:52.521Z,98812.91
2023-03-20T18:08:22.424Z,98819.41
2023-03-20T18:10:52.780Z,98819.41
2023-03-20T18:13:22.112Z,98817.00
2023-03-20T18:15:51.553Z,98830.81
2023-03-20T18:18:23.758Z,98827.13
2023-03-20T18:20:54.992Z,98824.59
2023-03-20T18:23:23.540Z,98829.31
2023-03-20T18:25:51.925Z,98829.50
2023-03-20T18:28:23.094Z,98839.94
2023-03-20T18:30:51.795Z,98835.22
2023-03-20T18:33:25.206Z,98814.88
2023-03-20T18:35:55.285Z,98829.75
2023-03-20T18:38:26.238Z,98835.72
2023-03-20T18:40:57.135Z,98828.41
2023-03-20T18:43:25.582Z,98820.59
2023-03-20T18:45:53.889Z,98824.88
2023-03-20T18:48:22.245Z,98831.47
2023-03-20T18:50:52.467Z,98814.47
2023-03-20T18:53:22.216Z,98832.31
2023-03-20T18:55:50.560Z,98824.25
2023-03-20T18:58:22.910Z,98794.25
2023-03-20T19:00:51.600Z,98826.28
2023-03-20T19:03:23.621Z,98829.88
2023-03-20T19:05:52.307Z,98827.28
2023-03-20T19:08:22.757Z,98827.09
2023-03-20T19:10:51.536Z,98815.16
2023-03-20T19:13:21.954Z,98825.84
2023-03-20T19:15:50.393Z,98829.81
2023-03-20T19:18:20.931Z,98826.44
2023-03-20T19:20:50.379Z,98827.53
2023-03-20T19:23:22.680Z,98781.28
2023-03-20T19:25:54.555Z,98819.13
2023-03-20T19:28:37.687Z,98818.31
2023-03-20T19:31:08.080Z,98818.63
2023-03-20T19:33:36.982Z,98827.28
2023-03-20T19:36:06.734Z,98819.31
2023-03-20T19:38:37.061Z,98829.66
2023-03-20T19:41:08.709Z,98820.41
2023-03-20T19:43:51.774Z,98823.56
2023-03-20T19:46:38.232Z,98818.00
2023-03-20T19:49:10.158Z,98820.47
2023-03-20T19:51:38.508Z,98823.09
2023-03-20T19:54:07.471Z,98820.41
2023-03-20T19:56:39.237Z,98816.88
2023-03-20T19:59:08.343Z,98819.19
2023-03-20T20:01:37.160Z,98816.69
2023-03-20T20:04:05.909Z,98813.28
2023-03-20T20:06:39.764Z,98790.91
2023-03-20T20:09:15.091Z,98818.78
2023-03-20T20:11:44.985Z,98814.78
2023-03-20T20:14:14.923Z,98812.28
2023-03-20T20:16:45.506Z,98810.38
2023-03-20T20:19:14.088Z,98809.34
2023-03-20T20:24:33.804Z,98811.53
2023-03-20T20:27:16.204Z,98817.69
2023-03-20T20:29:49.071Z,98816.69
2023-03-20T20:32:21.116Z,98823.28
2023-03-20T20:40:31.247Z,98819.88
2023-03-20T20:43:10.039Z,98805.88
2023-03-20T20:45:39.923Z,98807.00
2023-03-20T20:48:09.470Z,98812.59
2023-03-20T20:50:39.061Z,98812.06
2023-03-20T20:53:10.248Z,98812.41
2023-03-20T20:55:39.104Z,98813.34
2023-03-20T20:58:11.380Z,98811.19
2023-03-20T21:00:51.122Z,98807.16
2023-03-20T21:03:21.537Z,98811.34
2023-03-20T21:05:49.888Z,98815.22
2023-03-20T21:08:18.824Z,98817.03
2023-03-20T21:10:50.773Z,98813.00
2023-03-20T21:13:20.725Z,98806.00
2023-03-20T21:15:58.417Z,98791.97
2023-03-20T21:18:27.120Z,98812.25
2023-03-20T21:20:57.412Z,98809.94
2023-03-20T21:23:25.993Z,98800.09
2023-03-20T21:25:56.367Z,98802.53
2023-03-20T21:28:28.672Z,98799.56
2023-03-20T21:31:20.888Z,98805.38
2023-03-20T21:33:45.674Z,98803.19
2023-03-20T21:36:14.141Z,98810.75
2023-03-20T21:41:39.809Z,98810.28
2023-03-20T21:44:16.605Z,98802.34
2023-03-20T21:50:37.144Z,98811.84
2023-03-20T21:53:13.436Z,98810.00
2023-03-20T22:02:37.193Z,98803.50
2023-03-20T22:11:38.542Z,98806.16
2023-03-20T22:23:06.916Z,98800.81
2023-03-20T22:28:22.441Z,98800.69
2023-03-20T22:31:28.702Z,98800.34
2023-03-20T22:34:20.301Z,98802.47
2023-03-20T22:37:04.439Z,98803.28
2023-03-20T22:45:01.113Z,98797.78
2023-03-20T22:47:26.875Z,98806.38
2023-03-20T22:49:55.315Z,98795.13
2023-03-20T22:52:35.093Z,98805.03
2023-03-20T22:55:07.800Z,98799.06
2023-03-20T22:57:45.701Z,98797.91
2023-03-20T23:00:21.530Z,98794.91
2023-03-20T23:02:49.819Z,98791.22
2023-03-20T23:05:18.343Z,98759.63
2023-03-20T23:07:48.020Z,98790.06
2023-03-20T23:10:16.324Z,98786.03
2023-03-20T23:12:44.730Z,98786.63
2023-03-20T23:15:15.423Z,98783.09
2023-03-20T23:17:43.756Z,98783.88
2023-03-20T23:20:17.110Z,98784.25
2023-03-20T23:22:49.354Z,98776.72
2023-03-20T23:25:27.510Z,98780.16
2023-03-20T23:28:04.838Z,98786.19
2023-03-20T23:30:43.427Z,98760.91
2023-03-20T23:33:13.474Z,98782.66
2023-03-20T23:35:41.787Z,98784.75
2023-03-20T23:38:11.469Z,98766.72
2023-03-20T23:40:39.946Z,98779.00
2023-03-20T23:43:08.374Z,98778.88
2023-03-20T23:45:36.880Z,98765.84
2023-03-20T23:48:08.308Z,98778.31
2023-03-20T23:50:51.491Z,98772.34
2023-03-20T23:53:22.399Z,98768.47
2023-03-20T23:55:53.415Z,98750.44
2023-03-20T23:58:23.060Z,98773.09
